createdAt,value
2018-12-16T00:00:54.860Z,68.26
2018-12-16T00:01:54.975Z,68.53
2018-12-16T00:02:54.847Z,68.3
2018-12-16T00:03:55.031Z,68.42
2018-12-16T00:04:54.814Z,68.38
2018-12-16T00:05:55.590Z,68.47
2018-12-16T00:06:54.741Z,68.52
2018-12-16T00:07:54.806Z,68.67
2018-12-16T00:08:54.925Z,68.57
2018-12-16T00:09:54.971Z,68.52
2018-12-16T00:10:55.593Z,68.39
2018-12-16T00:11:55.090Z,68.42
2018-12-16T00:12:54.794Z,68.61
2018-12-16T00:13:54.820Z,68.73
2018-12-16T00:14:54.866Z,68.88
2018-12-16T00:15:54.733Z,68.65
2018-12-16T00:16:55.118Z,68.75
2018-12-16T00:17:54.776Z,68.57
2018-12-16T00:18:54.899Z,68.63
2018-12-16T00:19:54.793Z,68.79
2018-12-16T00:20:54.944Z,68.61
2018-12-16T00:21:54.916Z,68.65
2018-12-16T00:22:54.883Z,68.62
2018-12-16T00:23:54.892Z,68.65
2018-12-16T00:24:55.038Z,68.73
2018-12-16T00:25:55.509Z,68.52
2018-12-16T00:26:54.916Z,68.52
2018-12-16T00:27:54.911Z,68.73
2018-12-16T00:28:54.787Z,68.81
2018-12-16T00:29:54.897Z,68.79
2018-12-16T00:30:55.007Z,68.8
2018-12-16T00:31:54.772Z,68.76
2018-12-16T00:32:54.936Z,68.64
2018-12-16T00:33:54.974Z,68.7
2018-12-16T00:34:54.907Z,68.64
2018-12-16T00:35:55.112Z,68.5
2018-12-16T00:36:54.896Z,68.73
2018-12-16T00:37:55.135Z,68.87
2018-12-16T00:38:54.755Z,68.69
2018-12-16T00:39:54.950Z,68.87
2018-12-16T00:40:54.731Z,69.02
2018-12-16T00:41:54.957Z,68.99
2018-12-16T00:42:54.772Z,68.96
2018-12-16T00:43:54.759Z,69.16
2018-12-16T00:44:54.983Z,68.95
2018-12-16T00:45:54.799Z,69.13
2018-12-16T00:46:55.139Z,69.26
2018-12-16T00:47:54.736Z,69.1
2018-12-16T00:48:54.743Z,69.17
2018-12-16T00:49:54.685Z,69.1
2018-12-16T00:50:54.944Z,69.05
2018-12-16T00:51:54.717Z,69.09
2018-12-16T00:52:54.774Z,69.11
2018-12-16T00:53:54.735Z,69.24
2018-12-16T00:54:54.683Z,69.31
2018-12-16T00:55:54.720Z,69.14
2018-12-16T00:56:54.673Z,69.22
2018-12-16T00:57:54.723Z,69.28
2018-12-16T00:58:54.808Z,69.26
2018-12-16T00:59:54.884Z,69.45
2018-12-16T01:00:54.706Z,69.24
2018-12-16T01:01:54.769Z,69.29
2018-12-16T01:02:54.687Z,69.24
2018-12-16T01:03:55.085Z,69.25
2018-12-16T01:04:54.963Z,69.41
2018-12-16T01:05:54.708Z,69.48
2018-12-16T01:06:54.879Z,69.42
2018-12-16T01:07:54.758Z,69.46
2018-12-16T01:08:55.043Z,69.76
2018-12-16T01:09:54.856Z,69.5
2018-12-16T01:10:54.994Z,69.44
2018-12-16T01:11:54.657Z,69.65
2018-12-16T01:12:54.671Z,69.68
2018-12-16T01:13:55.007Z,69.4
2018-12-16T01:14:54.657Z,69.54
2018-12-16T01:15:55.035Z,69.28
2018-12-16T01:16:54.692Z,69.59
2018-12-16T01:17:55.128Z,69.64
2018-12-16T01:18:55.013Z,69.36
2018-12-16T01:19:54.996Z,69.6
2018-12-16T01:20:55.158Z,69.56
2018-12-16T01:21:54.726Z,69.39
2018-12-16T01:22:54.913Z,69.51
2018-12-16T01:23:54.683Z,69.57
2018-12-16T01:24:54.891Z,69.4
2018-12-16T01:25:54.648Z,69.27
2018-12-16T01:26:54.992Z,69.5
2018-12-16T01:27:55.047Z,69.59
2018-12-16T01:28:55.078Z,69.62
2018-12-16T01:29:54.990Z,69.49
2018-12-16T01:30:54.719Z,69.49
2018-12-16T01:31:54.675Z,69.41
2018-12-16T01:32:55.313Z,69.48
2018-12-16T01:33:54.710Z,69.52
2018-12-16T01:34:54.645Z,69.65
2018-12-16T01:35:54.855Z,70.04
2018-12-16T01:36:54.706Z,69.54
2018-12-16T01:37:54.772Z,69.42
2018-12-16T01:38:54.683Z,69.58
2018-12-16T01:39:54.679Z,69.7
2018-12-16T01:40:54.926Z,69.6
2018-12-16T01:41:54.678Z,69.67
2018-12-16T01:42:54.931Z,69.82
2018-12-16T01:43:55.153Z,69.82
2018-12-16T01:44:54.815Z,70
2018-12-16T01:45:54.700Z,69.98
2018-12-16T01:46:54.878Z,70.18
2018-12-16T01:47:54.763Z,70.02
2018-12-16T01:48:54.738Z,70.21
2018-12-16T01:49:54.692Z,70.02
2018-12-16T01:50:54.770Z,69.99
2018-12-16T01:51:54.751Z,70.2
2018-12-16T01:52:54.756Z,69.98
2018-12-16T01:53:54.630Z,69.9
2018-12-16T01:54:54.661Z,70
2018-12-16T01:55:54.658Z,69.83
2018-12-16T01:56:55.001Z,70.01
2018-12-16T01:57:54.704Z,70.15
2018-12-16T01:58:54.884Z,70.08
2018-12-16T01:59:54.656Z,69.88
2018-12-16T02:00:54.691Z,70.03
2018-12-16T02:01:54.598Z,70
2018-12-16T02:02:54.963Z,69.99
2018-12-16T02:03:54.581Z,70.14
2018-12-16T02:04:55.022Z,70.15
2018-12-16T02:05:54.611Z,70.16
2018-12-16T02:06:54.669Z,70.09
2018-12-16T02:07:54.709Z,70.04
2018-12-16T02:08:54.648Z,70.14
2018-12-16T02:09:54.695Z,70.11
2018-12-16T02:10:54.592Z,69.96
2018-12-16T02:11:54.662Z,69.83
2018-12-16T02:12:54.965Z,69.99
2018-12-16T02:13:54.823Z,70.07
2018-12-16T02:14:54.576Z,70.01
2018-12-16T02:15:54.728Z,70.1
2018-12-16T02:16:54.626Z,70.01
2018-12-16T02:17:54.577Z,70.01
2018-12-16T02:18:54.609Z,69.93
2018-12-16T02:19:54.729Z,69.9
2018-12-16T02:20:54.773Z,69.97
2018-12-16T02:21:54.739Z,70.2
2018-12-16T02:22:56.900Z,70.18
2018-12-16T02:23:54.578Z,70.23
2018-12-16T02:24:54.799Z,70.37
2018-12-16T02:25:54.654Z,70.46
2018-12-16T02:26:54.558Z,70.45
2018-12-16T02:27:54.563Z,70.34
2018-12-16T02:28:54.584Z,70.33
2018-12-16T02:29:54.648Z,70.52
2018-12-16T02:30:54.646Z,70.28
2018-12-16T02:31:54.621Z,70.26
2018-12-16T02:32:54.625Z,70.52
2018-12-16T02:33:54.588Z,70.52
2018-12-16T02:34:54.550Z,70.66
2018-12-16T02:35:54.875Z,70.35
2018-12-16T02:36:54.580Z,70.06
2018-12-16T02:37:54.593Z,70.05
2018-12-16T02:38:54.550Z,69.94
2018-12-16T02:39:54.566Z,70.23
2018-12-16T02:40:54.580Z,70.38
2018-12-16T02:41:54.622Z,70.3
2018-12-16T02:42:54.650Z,70.31
2018-12-16T02:43:54.601Z,70.17
2018-12-16T02:44:54.585Z,70.38
2018-12-16T02:45:54.722Z,70.33
2018-12-16T02:46:54.803Z,70.24
2018-12-16T02:47:54.731Z,70.13
2018-12-16T02:48:54.609Z,70.32
2018-12-16T02:49:54.669Z,70.27
2018-12-16T02:50:54.914Z,70.08
2018-12-16T02:51:54.597Z,70.27
2018-12-16T02:52:54.522Z,70.55
2018-12-16T02:53:54.589Z,70.45
2018-12-16T02:54:54.553Z,70.23
2018-12-16T02:55:54.557Z,70.32
2018-12-16T02:56:54.717Z,70.25
2018-12-16T02:57:54.614Z,70.44
2018-12-16T02:58:54.569Z,70.17
2018-12-16T02:59:54.650Z,70.25
2018-12-16T03:00:54.594Z,70.27
2018-12-16T03:01:54.644Z,70.46
2018-12-16T03:02:54.629Z,70.5
2018-12-16T03:03:55.171Z,70.24
2018-12-16T03:04:54.533Z,70.51
2018-12-16T03:05:54.691Z,70.67
2018-12-16T03:06:54.671Z,70.55
2018-12-16T03:07:54.953Z,70.56
2018-12-16T03:08:54.578Z,70.46
2018-12-16T03:09:54.550Z,70.36
2018-12-16T03:10:54.728Z,70.55
2018-12-16T03:11:54.516Z,70.58
2018-12-16T03:12:54.514Z,70.62
2018-12-16T03:13:54.509Z,70.4
2018-12-16T03:14:54.581Z,70.46
2018-12-16T03:15:54.616Z,70.71
2018-12-16T03:16:54.488Z,70.57
2018-12-16T03:17:54.486Z,70.83
2018-12-16T03:18:54.813Z,70.68
2018-12-16T03:19:54.537Z,70.59
2018-12-16T03:20:54.883Z,70.6
2018-12-16T03:21:54.630Z,70.47
2018-12-16T03:22:54.735Z,70.62
2018-12-16T03:23:54.600Z,70.58
2018-12-16T03:24:54.589Z,70.83
2018-12-16T03:25:54.674Z,70.84
2018-12-16T03:26:54.563Z,70.46
2018-12-16T03:27:54.556Z,70.56
2018-12-16T03:28:54.555Z,70.76
2018-12-16T03:29:54.539Z,70.67
2018-12-16T03:30:54.521Z,70.71
2018-12-16T03:31:54.511Z,70.46
2018-12-16T03:32:54.626Z,70.41
2018-12-16T03:33:54.747Z,70.6
2018-12-16T03:34:54.478Z,70.73
2018-12-16T03:35:54.687Z,70.69
2018-12-16T03:36:54.536Z,70.92
2018-12-16T03:37:54.506Z,70.63
2018-12-16T03:38:54.465Z,70.74
2018-12-16T03:39:54.716Z,70.78
2018-12-16T03:40:54.551Z,70.76
2018-12-16T03:41:54.842Z,70.56
2018-12-16T03:42:54.663Z,70.59
2018-12-16T03:43:54.632Z,70.64
2018-12-16T03:44:54.594Z,70.61
2018-12-16T03:45:54.835Z,70.74
2018-12-16T03:46:54.682Z,70.87
2018-12-16T03:47:54.531Z,70.72
2018-12-16T03:48:54.520Z,70.68
2018-12-16T03:49:54.615Z,70.74
2018-12-16T03:50:54.624Z,70.81
2018-12-16T03:51:54.571Z,70.69
2018-12-16T03:52:54.630Z,70.96
2018-12-16T03:53:54.578Z,70.8
2018-12-16T03:54:54.584Z,70.91
2018-12-16T03:55:54.545Z,71.1
2018-12-16T03:56:54.444Z,70.9
2018-12-16T03:57:54.511Z,70.99
2018-12-16T03:58:54.445Z,71.09
2018-12-16T03:59:54.593Z,71.02
2018-12-16T04:00:54.584Z,71.15
2018-12-16T04:01:54.434Z,70.9
2018-12-16T04:02:54.440Z,70.83
2018-12-16T04:03:54.476Z,70.97
2018-12-16T04:04:54.450Z,70.9
2018-12-16T04:05:54.505Z,71.1
2018-12-16T04:06:54.398Z,71.06
2018-12-16T04:07:54.526Z,71.36
2018-12-16T04:08:54.460Z,71.4
2018-12-16T04:09:54.473Z,71.33
2018-12-16T04:10:54.422Z,71.76
2018-12-16T04:11:54.434Z,71.59
2018-12-16T04:12:54.442Z,71.91
2018-12-16T04:13:54.424Z,72.11
2018-12-16T04:14:54.417Z,72.68
2018-12-16T04:15:54.543Z,72.91
2018-12-16T04:16:54.392Z,73.32
2018-12-16T04:17:54.421Z,73.81
2018-12-16T04:18:54.405Z,74.57
2018-12-16T04:19:54.413Z,74.72
2018-12-16T04:20:54.419Z,75.25
2018-12-16T04:21:55.238Z,75.27
2018-12-16T04:22:54.593Z,75.4
2018-12-16T04:23:54.532Z,76.15
2018-12-16T04:24:54.570Z,76.69
2018-12-16T04:25:54.562Z,76.57
2018-12-16T04:26:54.876Z,77.42
2018-12-16T04:27:54.576Z,77.75
2018-12-16T04:28:54.474Z,77.81
2018-12-16T04:29:54.451Z,78.85
2018-12-16T04:30:54.597Z,78.6
2018-12-16T04:31:54.533Z,79.42
2018-12-16T04:32:54.693Z,79.28
2018-12-16T04:33:55.231Z,79.94
2018-12-16T04:34:55.205Z,80.11
2018-12-16T04:35:54.777Z,80.38
2018-12-16T04:36:54.582Z,80.73
2018-12-16T04:37:54.383Z,81.32
2018-12-16T04:39:54.477Z,82.36
2018-12-16T04:40:54.472Z,82.12
2018-12-16T04:41:54.387Z,82.61
2018-12-16T04:42:54.556Z,82.01
2018-12-16T04:43:54.530Z,82.44
2018-12-16T04:44:54.429Z,81.87
2018-12-16T04:45:54.440Z,82.94
2018-12-16T04:46:54.442Z,84
2018-12-16T04:47:54.405Z,83.06
2018-12-16T04:48:54.422Z,83.42
2018-12-16T04:49:54.435Z,83.05
2018-12-16T04:50:54.405Z,83.61
2018-12-16T04:51:54.369Z,83.73
2018-12-16T04:52:54.529Z,83.76
2018-12-16T04:53:54.600Z,83.11
2018-12-16T04:54:54.603Z,82.51
2018-12-16T04:55:54.373Z,83.27
2018-12-16T04:56:54.551Z,83.9
2018-12-16T04:57:54.420Z,85.04
2018-12-16T04:58:54.409Z,83.66
2018-12-16T04:59:54.370Z,83.99
2018-12-16T05:00:54.575Z,84.26
2018-12-16T05:01:54.577Z,84.74
2018-12-16T05:02:54.374Z,83.15
2018-12-16T05:03:54.447Z,84.28
2018-12-16T05:04:54.659Z,83.71
2018-12-16T05:05:54.371Z,84.96
2018-12-16T05:06:54.468Z,85.13
2018-12-16T05:07:54.527Z,84.68
2018-12-16T05:08:54.381Z,84.54
2018-12-16T05:09:54.386Z,84.6
2018-12-16T05:10:54.398Z,85.04
2018-12-16T05:11:54.472Z,85.19
2018-12-16T05:12:54.441Z,85.31
2018-12-16T05:13:54.464Z,85.29
2018-12-16T05:14:54.453Z,85.34
2018-12-16T05:15:54.402Z,85.48
2018-12-16T05:16:54.715Z,86.29
2018-12-16T05:17:54.343Z,85.4
2018-12-16T05:18:54.346Z,84.99
2018-12-16T05:19:55.162Z,85.53
2018-12-16T05:20:54.349Z,86.27
2018-12-16T05:21:54.562Z,85.96
2018-12-16T05:22:54.661Z,85.4
2018-12-16T05:23:54.564Z,85.35
2018-12-16T05:24:54.510Z,85.59
2018-12-16T05:25:55.168Z,86.35
2018-12-16T05:26:54.406Z,86.21
2018-12-16T05:27:54.486Z,86.11
2018-12-16T05:28:55.183Z,86.32
2018-12-16T05:29:54.974Z,86.28
2018-12-16T05:30:54.479Z,86.3
2018-12-16T05:31:54.348Z,86.85
2018-12-16T05:32:54.302Z,87.32
2018-12-16T05:33:55.119Z,86.66
2018-12-16T05:34:54.458Z,86.98
2018-12-16T05:35:54.496Z,86.78
2018-12-16T05:36:54.677Z,87.29
2018-12-16T05:37:54.303Z,87.04
2018-12-16T05:38:54.501Z,86.61
2018-12-16T05:39:54.356Z,86.78
2018-12-16T05:40:54.326Z,86.81
2018-12-16T05:41:54.335Z,87.04
2018-12-16T05:42:54.390Z,87.14
2018-12-16T05:43:54.361Z,86.94
2018-12-16T05:44:54.316Z,87.32
2018-12-16T05:45:54.427Z,87.92
2018-12-16T05:46:54.400Z,87.77
2018-12-16T05:47:54.424Z,87.56
2018-12-16T05:48:54.298Z,87.9
2018-12-16T05:49:54.339Z,87.89
2018-12-16T05:50:54.337Z,87.23
2018-12-16T05:51:54.281Z,88.16
2018-12-16T05:52:54.327Z,87.57
2018-12-16T05:53:54.354Z,87.18
2018-12-16T05:54:54.288Z,87.7
2018-12-16T05:55:54.336Z,87.99
2018-12-16T05:56:54.337Z,87.88
2018-12-16T05:57:54.339Z,87.87
2018-12-16T05:58:54.303Z,88.38
2018-12-16T05:59:54.693Z,87.93
2018-12-16T06:00:54.322Z,88.56
2018-12-16T06:01:54.445Z,88.13
2018-12-16T06:02:54.429Z,87.92
2018-12-16T06:03:55.038Z,89.01
2018-12-16T06:04:54.462Z,88.7
2018-12-16T06:05:54.416Z,88.11
2018-12-16T06:06:54.421Z,88.51
2018-12-16T06:07:54.514Z,88.63
2018-12-16T06:08:54.325Z,88.7
2018-12-16T06:09:54.492Z,88.56
2018-12-16T06:10:54.423Z,88.5
2018-12-16T06:11:54.354Z,88.63
2018-12-16T06:12:54.423Z,88.58
2018-12-16T06:13:55.103Z,88.87
2018-12-16T06:14:54.476Z,88.87
2018-12-16T06:15:54.348Z,88.52
2018-12-16T06:16:54.230Z,88.63
2018-12-16T06:17:54.275Z,88.15
2018-12-16T06:18:55.075Z,88.56
2018-12-16T06:19:54.261Z,88.85
2018-12-16T06:20:54.297Z,89.44
2018-12-16T06:21:54.351Z,88.17
2018-12-16T06:22:54.230Z,88.62
2018-12-16T06:23:55.652Z,88.65
2018-12-16T06:24:54.284Z,89.39
2018-12-16T06:25:54.721Z,89.06
2018-12-16T06:26:54.697Z,88.64
2018-12-16T06:27:54.801Z,88.71
2018-12-16T06:28:54.214Z,89.13
2018-12-16T06:29:54.378Z,89.4
2018-12-16T06:30:54.256Z,88.28
2018-12-16T06:31:55.312Z,89.1
2018-12-16T06:32:54.399Z,88.53
2018-12-16T06:33:54.543Z,88.96
2018-12-16T06:34:54.462Z,89.09
2018-12-16T06:35:54.295Z,88.74
2018-12-16T06:36:54.442Z,89.1
2018-12-16T06:37:54.435Z,88.92
2018-12-16T06:38:54.224Z,88.99
2018-12-16T06:39:55.072Z,89.41
2018-12-16T06:40:54.266Z,89.2
2018-12-16T06:41:55.281Z,89.2
2018-12-16T06:42:54.221Z,89.65
2018-12-16T06:43:54.247Z,88.89
2018-12-16T06:44:54.327Z,88.95
2018-12-16T06:45:54.370Z,89.01
2018-12-16T06:46:54.411Z,89.18
2018-12-16T06:47:54.307Z,89.49
2018-12-16T06:48:54.234Z,89.24
2018-12-16T06:49:54.218Z,89.05
2018-12-16T06:50:54.626Z,89.12
2018-12-16T06:51:54.375Z,88.87
2018-12-16T06:52:54.238Z,88.63
2018-12-16T06:53:54.441Z,88.77
2018-12-16T06:54:54.496Z,88.74
2018-12-16T06:55:54.406Z,89.15
2018-12-16T06:56:54.315Z,89.35
2018-12-16T06:57:54.649Z,88.62
2018-12-16T06:58:54.320Z,88.89
2018-12-16T06:59:54.234Z,88.56
2018-12-16T07:00:54.328Z,88.66
2018-12-16T07:01:54.302Z,88.76
2018-12-16T07:02:54.361Z,89.37
2018-12-16T07:03:54.409Z,89.29
2018-12-16T07:04:54.257Z,88.37
2018-12-16T07:05:54.468Z,88.15
2018-12-16T07:06:54.189Z,89.05
2018-12-16T07:07:54.390Z,88.3
2018-12-16T07:08:54.426Z,89.01
2018-12-16T07:09:54.310Z,88.76
2018-12-16T07:10:54.249Z,88.41
2018-12-16T07:11:54.166Z,88.84
2018-12-16T07:12:54.202Z,88.95
2018-12-16T07:13:54.255Z,88.46
2018-12-16T07:14:54.736Z,87.83
2018-12-16T07:15:54.299Z,88.38
2018-12-16T07:16:54.178Z,88.39
2018-12-16T07:17:54.175Z,88.23
2018-12-16T07:18:54.279Z,88.66
2018-12-16T07:19:54.230Z,88.03
2018-12-16T07:20:54.379Z,87.8
2018-12-16T07:21:54.236Z,87.73
2018-12-16T07:22:54.283Z,88.39
2018-12-16T07:23:54.178Z,87.95
2018-12-16T07:24:54.234Z,87.97
2018-12-16T07:25:54.236Z,88.18
2018-12-16T07:26:54.306Z,88.58
2018-12-16T07:27:54.249Z,88.13
2018-12-16T07:28:54.244Z,88.18
2018-12-16T07:29:54.166Z,88.43
2018-12-16T07:30:54.214Z,88.67
2018-12-16T07:31:54.255Z,88.97
2018-12-16T07:32:54.149Z,88.91
2018-12-16T07:33:54.477Z,88.59
2018-12-16T07:34:54.157Z,88.83
2018-12-16T07:35:54.573Z,88.58
2018-12-16T07:36:54.168Z,89.08
2018-12-16T07:37:54.331Z,89.23
2018-12-16T07:38:54.262Z,88.62
2018-12-16T07:39:54.528Z,88.75
2018-12-16T07:40:54.341Z,88.63
2018-12-16T07:41:54.182Z,88.71
2018-12-16T07:42:54.283Z,88.66
2018-12-16T07:43:54.976Z,88.19
2018-12-16T07:44:54.534Z,88.52
2018-12-16T07:45:54.122Z,88.62
2018-12-16T07:46:54.223Z,88.68
2018-12-16T07:47:54.172Z,88.85
2018-12-16T07:48:54.463Z,88.88
2018-12-16T07:49:54.343Z,89.14
2018-12-16T07:50:54.161Z,88.93
2018-12-16T07:51:54.395Z,88.63
2018-12-16T07:52:54.150Z,88.59
2018-12-16T07:53:54.575Z,88.52
2018-12-16T07:54:54.337Z,88.7
2018-12-16T07:55:54.206Z,88.79
2018-12-16T07:56:54.251Z,89.03
2018-12-16T07:57:54.289Z,88.96
2018-12-16T07:58:54.344Z,88.56
2018-12-16T07:59:54.084Z,88.41
2018-12-16T08:00:54.465Z,88.09
2018-12-16T08:01:54.243Z,88.38
2018-12-16T08:02:54.339Z,88.3
2018-12-16T08:03:54.232Z,88.69
2018-12-16T08:04:54.095Z,88.83
2018-12-16T08:05:54.108Z,88.44
2018-12-16T08:06:54.316Z,88.48
2018-12-16T08:07:54.286Z,88.88
2018-12-16T08:08:54.183Z,89.12
2018-12-16T08:09:54.189Z,88.8
2018-12-16T08:10:54.331Z,88.4
2018-12-16T08:11:54.162Z,88.5
2018-12-16T08:12:54.186Z,88.04
2018-12-16T08:13:54.416Z,89.03
2018-12-16T08:14:54.178Z,88.84
2018-12-16T08:15:54.125Z,89.07
2018-12-16T08:16:54.249Z,89.42
2018-12-16T08:17:54.274Z,89.64
2018-12-16T08:18:54.069Z,89.02
2018-12-16T08:19:54.134Z,89.35
2018-12-16T08:20:54.145Z,89.38
2018-12-16T08:21:54.285Z,88.82
2018-12-16T08:22:54.225Z,88.77
2018-12-16T08:23:54.918Z,88.65
2018-12-16T08:24:54.297Z,88.87
2018-12-16T08:25:54.158Z,88.76
2018-12-16T08:26:54.901Z,88.53
2018-12-16T08:27:54.243Z,89.02
2018-12-16T08:28:54.176Z,88.71
2018-12-16T08:29:54.359Z,88.31
2018-12-16T08:30:54.113Z,88.89
2018-12-16T08:31:54.323Z,88.88
2018-12-16T08:32:54.131Z,88.57
2018-12-16T08:33:54.173Z,87.96
2018-12-16T08:34:54.151Z,88.51
2018-12-16T08:35:54.267Z,88.52
2018-12-16T08:36:54.084Z,89.01
2018-12-16T08:37:54.162Z,88.92
2018-12-16T08:38:54.350Z,88.91
2018-12-16T08:39:54.195Z,88.76
2018-12-16T08:40:54.472Z,88.73
2018-12-16T08:41:54.206Z,88.67
2018-12-16T08:42:54.160Z,88.87
2018-12-16T08:43:54.220Z,89.25
2018-12-16T08:44:54.188Z,89.13
2018-12-16T08:45:54.261Z,88.86
2018-12-16T08:46:54.138Z,88.92
2018-12-16T08:47:54.288Z,88.87
2018-12-16T08:48:54.863Z,88.4
2018-12-16T08:49:54.712Z,88.48
2018-12-16T08:50:54.165Z,89.24
2018-12-16T08:51:54.812Z,89.22
2018-12-16T08:52:55.055Z,88.83
2018-12-16T08:53:54.163Z,88.66
2018-12-16T08:54:54.342Z,88.5
2018-12-16T08:55:54.196Z,88.58
2018-12-16T08:56:54.447Z,88.69
2018-12-16T08:57:54.100Z,89.01
2018-12-16T08:58:54.143Z,89.26
2018-12-16T08:59:54.022Z,89.35
2018-12-16T09:00:54.075Z,88.93
2018-12-16T09:01:54.030Z,89.03
2018-12-16T09:02:54.043Z,88.53
2018-12-16T09:03:54.080Z,88.88
2018-12-16T09:04:54.032Z,88.95
2018-12-16T09:05:54.037Z,88.91
2018-12-16T09:06:54.041Z,88.84
2018-12-16T09:07:54.121Z,88.85
2018-12-16T09:08:54.081Z,88.91
2018-12-16T09:09:54.124Z,89.3
2018-12-16T09:10:54.248Z,88.96
2018-12-16T09:11:54.077Z,88.77
2018-12-16T09:12:54.056Z,88.82
2018-12-16T09:13:54.399Z,89.04
2018-12-16T09:14:54.044Z,88.97
2018-12-16T09:15:54.827Z,89.46
2018-12-16T09:16:54.350Z,88.99
2018-12-16T09:17:54.122Z,89.17
2018-12-16T09:18:53.997Z,88.79
2018-12-16T09:19:54.108Z,89.47
2018-12-16T09:20:54.119Z,89.41
2018-12-16T09:21:54.381Z,89.15
2018-12-16T09:22:54.496Z,89.24
2018-12-16T09:23:54.169Z,89.35
2018-12-16T09:24:54.220Z,89.68
2018-12-16T09:25:54.127Z,89.01
2018-12-16T09:26:54.005Z,89.17
2018-12-16T09:27:54.089Z,89.32
2018-12-16T09:28:54.058Z,89.02
2018-12-16T09:29:54.148Z,90.28
2018-12-16T09:30:57.883Z,89.55
2018-12-16T09:31:54.198Z,89.31
2018-12-16T09:32:54.791Z,89.84
2018-12-16T09:33:54.038Z,89.56
2018-12-16T09:34:54.090Z,89.42
2018-12-16T09:35:54.052Z,89.47
2018-12-16T09:36:54.198Z,89.13
2018-12-16T09:37:54.438Z,89.63
2018-12-16T09:38:54.036Z,89.58
2018-12-16T09:39:53.988Z,89.44
2018-12-16T09:40:54.012Z,89.1
2018-12-16T09:41:54.045Z,89.25
2018-12-16T09:42:53.961Z,89.6
2018-12-16T09:43:53.959Z,89.24
2018-12-16T09:44:53.962Z,89.41
2018-12-16T09:45:54.034Z,89.52
2018-12-16T09:46:54.081Z,89.55
2018-12-16T09:47:54.325Z,89.36
2018-12-16T09:48:53.990Z,89.11
2018-12-16T09:49:54.357Z,89.3
2018-12-16T09:50:54.185Z,89.45
2018-12-16T09:51:53.970Z,89.73
2018-12-16T09:52:54.176Z,89.46
2018-12-16T09:53:54.021Z,89.46
2018-12-16T09:54:54.002Z,89.8
2018-12-16T09:55:54.338Z,89.37
2018-12-16T09:56:53.981Z,89.57
2018-12-16T09:57:54.115Z,89.61
2018-12-16T09:58:54.012Z,89.95
2018-12-16T09:59:54.025Z,89.66
2018-12-16T10:00:54.371Z,89.04
2018-12-16T10:01:54.080Z,89.13
2018-12-16T10:02:54.106Z,89.12
2018-12-16T10:03:53.949Z,89.03
2018-12-16T10:04:54.184Z,89.66
2018-12-16T10:05:54.419Z,88.83
2018-12-16T10:06:54.164Z,89.15
2018-12-16T10:07:54.152Z,88.8
2018-12-16T10:08:54.154Z,89.03
2018-12-16T10:09:54.139Z,89.02
2018-12-16T10:10:54.224Z,89.48
2018-12-16T10:11:53.951Z,89.57
2018-12-16T10:12:54.149Z,89.31
2018-12-16T10:13:54.500Z,89.35
2018-12-16T10:14:54.051Z,88.97
2018-12-16T10:15:54.139Z,89.17
2018-12-16T10:16:53.935Z,88.62
2018-12-16T10:17:53.976Z,88.45
2018-12-16T10:18:54.085Z,88.5
2018-12-16T10:19:53.963Z,88.94
2018-12-16T10:20:54.082Z,88.83
2018-12-16T10:21:54.748Z,88.68
2018-12-16T10:22:54.067Z,88.41
2018-12-16T10:23:53.930Z,87.99
2018-12-16T10:24:54.765Z,88.49
2018-12-16T10:25:53.971Z,88.54
2018-12-16T10:26:54.081Z,88.34
2018-12-16T10:27:53.916Z,88.82
2018-12-16T10:28:54.205Z,88.49
2018-12-16T10:29:53.940Z,89.01
2018-12-16T10:30:54.041Z,88.61
2018-12-16T10:31:54.087Z,88.88
2018-12-16T10:32:53.907Z,88.6
2018-12-16T10:33:54.001Z,88.65
2018-12-16T10:34:53.935Z,88.66
2018-12-16T10:35:54.150Z,88.6
2018-12-16T10:36:54.104Z,88.46
2018-12-16T10:37:53.929Z,88.02
2018-12-16T10:38:57.149Z,88.39
2018-12-16T10:39:54.033Z,88.62
2018-12-16T10:40:56.811Z,88.26
2018-12-16T10:41:55.027Z,88.92
2018-12-16T10:42:54.156Z,88.92
2018-12-16T10:43:54.294Z,88.62
2018-12-16T10:44:53.955Z,88.95
2018-12-16T10:45:54.211Z,88.8
2018-12-16T10:46:54.039Z,88.83
2018-12-16T10:47:53.992Z,89.19
2018-12-16T10:48:53.983Z,89.19
2018-12-16T10:49:54.055Z,89.14
2018-12-16T10:50:54.045Z,89.39
2018-12-16T10:51:54.061Z,89
2018-12-16T10:52:53.971Z,88.92
2018-12-16T10:53:54.424Z,88.89
2018-12-16T10:54:58.284Z,88.83
2018-12-16T10:55:53.955Z,89.03
2018-12-16T10:56:55.280Z,88.71
2018-12-16T10:57:54.707Z,88.99
2018-12-16T10:58:54.062Z,88.81
2018-12-16T10:59:54.037Z,88.34
2018-12-16T11:00:53.962Z,88.59
2018-12-16T11:01:54.155Z,89.14
2018-12-16T11:02:59.038Z,88.78
2018-12-16T11:03:55.751Z,88.59
2018-12-16T11:04:57.208Z,88.65
2018-12-16T11:05:56.475Z,88.38
2018-12-16T11:06:55.139Z,88.01
2018-12-16T11:07:55.228Z,88.59
2018-12-16T11:08:55.474Z,88.44
2018-12-16T11:09:54.301Z,88.51
2018-12-16T11:10:54.637Z,88.87
2018-12-16T11:11:54.489Z,89.04
2018-12-16T11:12:56.639Z,89.01
2018-12-16T11:13:58.580Z,89.22
2018-12-16T11:14:58.342Z,89.21
2018-12-16T11:15:57.003Z,88.75
2018-12-16T11:16:55.264Z,88.87
2018-12-16T11:17:54.809Z,89.47
2018-12-16T11:18:55.554Z,88.98
2018-12-16T11:19:54.394Z,89.06
2018-12-16T11:20:55.555Z,89.18
2018-12-16T11:21:55.595Z,89.77
2018-12-16T11:22:57.814Z,89.37
2018-12-16T11:23:56.294Z,89.3
2018-12-16T11:24:56.447Z,89.22
2018-12-16T11:25:55.177Z,89.22
2018-12-16T11:26:56.703Z,89.19
2018-12-16T11:28:58.604Z,89.5
2018-12-16T11:29:56.157Z,89.71
2018-12-16T11:30:55.995Z,89.36
2018-12-16T11:31:55.507Z,89.53
2018-12-16T11:32:56.457Z,89.42
2018-12-16T11:33:55.198Z,90.27
2018-12-16T11:34:56.097Z,90.31
2018-12-16T11:35:55.486Z,90
2018-12-16T11:36:56.385Z,89.97
2018-12-16T11:37:59.691Z,89.23
2018-12-16T11:38:55.623Z,90.03
2018-12-16T11:39:56.877Z,90.07
2018-12-16T11:40:55.498Z,90.18
2018-12-16T11:41:55.615Z,90
2018-12-16T11:42:55.836Z,89.61
2018-12-16T11:43:54.432Z,90.15
2018-12-16T11:44:55.650Z,89.98
2018-12-16T11:45:55.852Z,90.19
2018-12-16T11:46:55.178Z,90.06
2018-12-16T11:47:58.618Z,90.91
2018-12-16T11:48:55.347Z,90.42
2018-12-16T11:49:55.656Z,90.03
2018-12-16T11:50:55.710Z,90.25
2018-12-16T11:51:56.357Z,90.33
2018-12-16T11:52:55.405Z,90.01
2018-12-16T11:53:55.854Z,90.47
2018-12-16T11:54:56.310Z,90.2
2018-12-16T11:55:55.335Z,90.13
2018-12-16T11:56:55.982Z,90.12
2018-12-16T11:57:56.068Z,89.97
2018-12-16T11:58:55.670Z,90.13
2018-12-16T11:59:54.383Z,90.18
2018-12-16T12:01:03.579Z,89.96
2018-12-16T12:03:01.429Z,89.71
2018-12-16T12:03:57.525Z,89.48
2018-12-16T12:04:56.738Z,89.8
2018-12-16T12:05:57.428Z,89.86
2018-12-16T12:06:54.277Z,89.51
2018-12-16T12:07:54.041Z,89.87
2018-12-16T12:08:53.989Z,90.11
2018-12-16T12:09:54.191Z,89.96
2018-12-16T12:10:53.947Z,89.88
2018-12-16T12:11:53.915Z,89.76
2018-12-16T12:12:53.754Z,90.29
2018-12-16T12:13:53.945Z,90.04
2018-12-16T12:14:53.748Z,89.54
2018-12-16T12:15:53.776Z,89.58
2018-12-16T12:16:54.230Z,89.47
2018-12-16T12:17:53.829Z,89.28
2018-12-16T12:18:53.731Z,89.95
2018-12-16T12:19:53.869Z,89.58
2018-12-16T12:20:53.788Z,89.92
2018-12-16T12:21:54.023Z,89.23
2018-12-16T12:22:53.752Z,91
2018-12-16T12:23:54.113Z,91.04
2018-12-16T12:24:53.863Z,90.24
2018-12-16T12:25:53.856Z,91.18
2018-12-16T12:26:53.909Z,90.96
2018-12-16T12:27:54.168Z,90.54
2018-12-16T12:28:53.826Z,90.16
2018-12-16T12:29:53.953Z,90.18
2018-12-16T12:30:54.001Z,90.32
2018-12-16T12:31:53.914Z,90.13
2018-12-16T12:32:53.794Z,90.26
2018-12-16T12:33:54.231Z,90.38
2018-12-16T12:34:53.910Z,90.22
2018-12-16T12:35:54.018Z,89.73
2018-12-16T12:36:53.954Z,90.04
2018-12-16T12:37:53.773Z,89.72
2018-12-16T12:38:53.735Z,90.55
2018-12-16T12:39:54.076Z,90.92
2018-12-16T12:40:54.651Z,89.97
2018-12-16T12:41:54.557Z,90.81
2018-12-16T12:42:53.761Z,90.15
2018-12-16T12:43:53.797Z,89.64
2018-12-16T12:44:53.773Z,89.75
2018-12-16T12:45:54.016Z,90.11
2018-12-16T12:46:53.714Z,89.87
2018-12-16T12:47:53.897Z,90.1
2018-12-16T12:48:53.925Z,90.56
2018-12-16T12:49:53.737Z,90.23
2018-12-16T12:50:53.711Z,90.34
2018-12-16T12:51:53.911Z,90.56
2018-12-16T12:52:53.760Z,90.53
2018-12-16T12:53:53.930Z,90.83
2018-12-16T12:54:53.971Z,91.01
2018-12-16T12:55:53.728Z,90.51
2018-12-16T12:56:53.684Z,90.16
2018-12-16T12:57:53.746Z,90.4
2018-12-16T12:58:53.891Z,90.04